Fayston, Vermont
Current Conditions -  °F | °C
As of 6:51 PM on Sunday 21 Dec 2014 (Local Time) from KMPV Reporting Station
Overcast Overcast  
Wind Chill: -4°   Ceiling: 1500
Heat Index: -4°   Visibility: 9mi
Dew Point: -7°   Wind: 0mph
Humidity: 84%   Direction: NA
Pressure: 30.35"   Gusts: NA
Location:  44.1924°N, 72.8443°W
Report Text: KMPV 212351Z AUTO 00000KT 9SM OVC015 M04/M07 A3035 RMK AO2 SLP298 T10441067 11044 21056 52011 $
Loading
Personal Weather Stations






























Interactive Weather Map New forecast layout! Learn more

10-Day Weather Forecast

Advertisements
Track Severe Weather on mobile